createdAt,value
2023-12-12T00:00:46.069Z,42.10
2023-12-12T00:03:34.801Z,32.60
2023-12-12T00:06:03.579Z,42.40
2023-12-12T00:08:32.209Z,40.70
2023-12-12T00:11:00.475Z,38.30
2023-12-12T00:13:28.835Z,30.10
2023-12-12T00:15:57.729Z,35.40
2023-12-12T00:18:26.285Z,38.40
2023-12-12T00:20:54.662Z,36.00
2023-12-12T00:23:22.978Z,36.40
2023-12-12T00:25:51.275Z,33.00
2023-12-12T00:28:19.638Z,35.30
2023-12-12T00:30:48.772Z,24.00
2023-12-12T00:33:18.354Z,25.00
2023-12-12T00:35:46.662Z,30.20
2023-12-12T00:38:14.949Z,30.30
2023-12-12T00:40:43.284Z,32.30
2023-12-12T00:43:11.530Z,19.10
2023-12-12T00:45:39.838Z,29.60
2023-12-12T00:48:08.247Z,26.90
2023-12-12T00:50:36.742Z,27.50
2023-12-12T00:53:04.960Z,31.70
2023-12-12T00:55:33.210Z,28.60
2023-12-12T00:58:01.575Z,30.40
2023-12-12T01:00:30.102Z,35.00
2023-12-12T01:02:58.610Z,46.10
2023-12-12T01:05:27.677Z,42.90
2023-12-12T01:07:55.922Z,29.40
2023-12-12T01:10:24.233Z,30.40
2023-12-12T01:12:52.594Z,30.30
2023-12-12T01:15:20.967Z,35.00
2023-12-12T01:17:49.626Z,30.60
2023-12-12T01:20:18.257Z,31.90
2023-12-12T01:22:46.629Z,31.90
2023-12-12T01:25:14.984Z,47.20
2023-12-12T01:27:43.377Z,24.30
2023-12-12T01:30:12.359Z,39.10
2023-12-12T01:32:40.644Z,36.10
2023-12-12T01:35:09.345Z,37.70
2023-12-12T01:37:37.857Z,24.50
2023-12-12T01:40:07.201Z,25.60
2023-12-12T01:42:35.504Z,30.20
2023-12-12T01:45:03.967Z,23.60
2023-12-12T01:47:32.646Z,46.90
2023-12-12T01:50:01.276Z,28.50
2023-12-12T01:52:30.570Z,32.60
2023-12-12T01:54:59.237Z,24.70
2023-12-12T01:57:28.150Z,22.90
2023-12-12T01:59:56.993Z,32.50
2023-12-12T02:02:26.297Z,31.70
2023-12-12T02:04:54.715Z,36.40
2023-12-12T02:07:24.570Z,26.30
2023-12-12T02:09:53.960Z,33.80
2023-12-12T02:12:24.182Z,21.50
2023-12-12T02:14:52.484Z,26.00
2023-12-12T02:17:20.771Z,34.00
2023-12-12T02:19:49.089Z,26.60
2023-12-12T02:22:17.443Z,17.30
2023-12-12T02:24:45.883Z,22.20
2023-12-12T02:27:14.470Z,25.90
2023-12-12T02:29:43.009Z,27.10
2023-12-12T02:32:11.276Z,30.70
2023-12-12T02:34:39.588Z,33.10
2023-12-12T02:37:07.972Z,27.90
2023-12-12T02:39:36.300Z,34.00
2023-12-12T02:42:05.051Z,28.50
2023-12-12T02:44:33.466Z,32.10
2023-12-12T02:47:01.703Z,26.90
2023-12-12T02:49:30.357Z,24.80
2023-12-12T02:51:58.795Z,27.80
2023-12-12T02:54:27.108Z,34.90
2023-12-12T02:56:56.108Z,27.60
2023-12-12T02:59:24.322Z,22.50
2023-12-12T03:01:53.122Z,31.60
2023-12-12T03:04:21.568Z,26.40
2023-12-12T03:06:49.858Z,31.70
2023-12-12T03:09:18.226Z,27.40
2023-12-12T03:11:46.777Z,22.40
2023-12-12T03:14:15.107Z,37.60
2023-12-12T03:16:43.343Z,38.40
2023-12-12T03:19:11.713Z,21.20
2023-12-12T03:21:40.072Z,18.70
2023-12-12T03:24:08.375Z,22.00
2023-12-12T03:26:36.882Z,29.80
2023-12-12T03:29:05.183Z,27.60
2023-12-12T03:31:33.475Z,33.90
2023-12-12T03:34:01.922Z,31.90
2023-12-12T03:36:30.301Z,24.80
2023-12-12T03:38:58.621Z,25.40
2023-12-12T03:41:27.095Z,26.30
2023-12-12T03:43:55.492Z,36.60
2023-12-12T03:46:23.816Z,22.00
2023-12-12T03:48:52.151Z,23.30
2023-12-12T03:51:20.613Z,25.30
2023-12-12T03:53:49.387Z,30.90
2023-12-12T03:56:17.727Z,30.10
2023-12-12T03:58:46.663Z,23.20
2023-12-12T04:01:15.040Z,23.90
2023-12-12T04:03:43.482Z,39.90
2023-12-12T04:06:12.100Z,30.50
2023-12-12T04:08:40.290Z,21.40
2023-12-12T04:11:08.669Z,23.00
2023-12-12T04:13:36.990Z,27.00
2023-12-12T04:16:05.813Z,35.20
2023-12-12T04:18:34.210Z,31.20
2023-12-12T04:21:02.611Z,26.40
2023-12-12T04:23:30.887Z,18.80
2023-12-12T04:25:59.167Z,28.20
2023-12-12T04:28:27.507Z,25.00
2023-12-12T04:30:55.901Z,27.30
2023-12-12T04:33:24.379Z,29.10
2023-12-12T04:35:52.730Z,33.40
2023-12-12T04:38:21.067Z,35.40
2023-12-12T04:40:49.533Z,26.00
2023-12-12T04:43:17.803Z,30.90
2023-12-12T04:45:46.252Z,37.60
2023-12-12T04:48:14.594Z,31.90
2023-12-12T04:50:43.011Z,23.90
2023-12-12T04:53:11.264Z,34.20
2023-12-12T04:55:40.542Z,32.40
2023-12-12T04:58:09.173Z,24.60
2023-12-12T05:00:37.624Z,26.20
2023-12-12T05:03:05.931Z,32.80
2023-12-12T05:05:34.564Z,34.30
2023-12-12T05:08:02.855Z,31.60
2023-12-12T05:10:31.324Z,31.40
2023-12-12T05:13:01.226Z,40.80
2023-12-12T05:15:30.612Z,39.30
2023-12-12T05:17:59.009Z,39.20
2023-12-12T05:20:27.438Z,50.30
2023-12-12T05:22:55.765Z,43.70
2023-12-12T05:25:26.370Z,36.00
2023-12-12T05:27:55.492Z,53.10
2023-12-12T05:30:23.783Z,52.10
2023-12-12T05:32:52.332Z,42.10
2023-12-12T05:35:20.799Z,49.10
2023-12-12T05:37:49.154Z,44.80
2023-12-12T05:40:17.734Z,31.40
2023-12-12T05:42:46.275Z,33.30
2023-12-12T05:45:15.048Z,34.00
2023-12-12T05:47:44.072Z,33.60
2023-12-12T05:50:13.353Z,39.40
2023-12-12T05:52:41.905Z,44.70
2023-12-12T05:55:10.790Z,38.70
2023-12-12T05:57:40.497Z,34.80
2023-12-12T06:00:09.422Z,46.80
2023-12-12T06:02:43.796Z,56.80
2023-12-12T06:05:12.513Z,32.50
2023-12-12T06:07:44.062Z,39.20
2023-12-12T06:10:12.485Z,39.20
2023-12-12T06:12:40.999Z,31.60
2023-12-12T06:15:09.847Z,31.20
2023-12-12T06:17:40.404Z,42.50
2023-12-12T06:20:09.588Z,37.00
2023-12-12T06:22:38.057Z,33.30
2023-12-12T06:25:07.874Z,27.30
2023-12-12T06:27:36.576Z,30.50
2023-12-12T06:30:05.913Z,28.50
2023-12-12T06:32:34.488Z,31.10
2023-12-12T06:35:05.860Z,31.20
2023-12-12T06:37:35.001Z,32.60
2023-12-12T06:40:05.194Z,35.30
2023-12-12T06:42:34.031Z,34.10
2023-12-12T06:45:02.432Z,28.00
2023-12-12T06:47:31.096Z,26.40
2023-12-12T06:49:59.673Z,25.70
2023-12-12T06:52:28.095Z,40.20
2023-12-12T06:54:56.651Z,33.00
2023-12-12T06:57:27.203Z,35.60
2023-12-12T06:59:56.147Z,35.70
2023-12-12T07:02:24.561Z,32.70
2023-12-12T07:04:52.900Z,34.60
2023-12-12T07:07:21.544Z,37.70
2023-12-12T07:09:59.054Z,31.10
2023-12-12T07:12:28.845Z,31.50
2023-12-12T07:14:57.380Z,35.30
2023-12-12T07:17:25.795Z,57.60
2023-12-12T07:19:54.304Z,36.50
2023-12-12T07:22:25.180Z,31.80
2023-12-12T07:24:53.547Z,33.70
2023-12-12T07:27:21.849Z,45.20
2023-12-12T07:29:50.216Z,32.30
2023-12-12T07:32:20.051Z,48.50
2023-12-12T07:34:48.706Z,34.40
2023-12-12T07:37:17.196Z,32.00
2023-12-12T07:39:45.611Z,37.40
2023-12-12T07:42:15.114Z,35.60
2023-12-12T07:44:44.184Z,38.60
2023-12-12T07:47:12.696Z,37.10
2023-12-12T07:49:41.422Z,26.30
2023-12-12T07:52:10.119Z,28.90
2023-12-12T07:54:39.428Z,38.20
2023-12-12T07:57:07.653Z,40.40
2023-12-12T07:59:36.057Z,37.40
2023-12-12T08:02:04.565Z,39.00
2023-12-12T08:04:37.273Z,49.10
2023-12-12T08:07:06.843Z,33.00
2023-12-12T08:09:35.115Z,41.50
2023-12-12T08:12:03.614Z,38.50
2023-12-12T08:14:32.023Z,43.20
2023-12-12T08:17:00.399Z,40.70
2023-12-12T08:19:29.091Z,47.60
2023-12-12T08:21:57.521Z,39.00
2023-12-12T08:24:26.102Z,31.20
2023-12-12T08:26:55.464Z,33.30
2023-12-12T08:29:23.796Z,35.80
2023-12-12T08:31:52.504Z,30.70
2023-12-12T08:34:20.998Z,35.90
2023-12-12T08:36:49.318Z,37.50
2023-12-12T08:39:17.690Z,38.10
2023-12-12T08:41:45.982Z,47.60
2023-12-12T08:44:14.246Z,34.10
2023-12-12T08:46:45.400Z,37.10
2023-12-12T08:49:14.142Z,31.50
2023-12-12T08:51:42.510Z,41.10
2023-12-12T08:54:10.950Z,28.40
2023-12-12T08:56:40.032Z,18.90
2023-12-12T08:59:08.334Z,27.50
2023-12-12T09:01:36.622Z,46.50
2023-12-12T09:04:05.217Z,29.00
2023-12-12T09:06:33.566Z,25.80
2023-12-12T09:09:01.881Z,41.70
2023-12-12T09:11:30.281Z,33.70
2023-12-12T09:13:58.617Z,27.40
2023-12-12T09:16:26.969Z,36.30
2023-12-12T09:18:55.573Z,35.20
2023-12-12T09:21:24.243Z,31.80
2023-12-12T09:23:52.627Z,54.60
2023-12-12T09:26:21.168Z,33.30
2023-12-12T09:28:49.702Z,30.20
2023-12-12T09:31:26.969Z,34.10
2023-12-12T09:33:56.783Z,48.20
2023-12-12T09:36:25.466Z,36.60
2023-12-12T09:38:53.729Z,26.30
2023-12-12T09:41:23.928Z,33.20
2023-12-12T09:43:52.742Z,34.30
2023-12-12T09:46:22.025Z,28.80
2023-12-12T09:48:51.314Z,34.30
2023-12-12T09:51:20.144Z,23.90
2023-12-12T09:53:49.271Z,31.30
2023-12-12T09:56:19.285Z,27.30
2023-12-12T09:58:50.489Z,27.40
2023-12-12T10:01:19.592Z,38.70
2023-12-12T10:03:49.062Z,40.30
2023-12-12T10:06:19.253Z,33.70
2023-12-12T10:08:48.243Z,29.40
2023-12-12T10:11:16.628Z,30.50
2023-12-12T10:13:52.547Z,35.00
2023-12-12T10:16:22.103Z,38.10
2023-12-12T10:18:52.422Z,33.70
2023-12-12T10:21:22.264Z,33.10
2023-12-12T10:23:55.474Z,28.20
2023-12-12T10:26:31.359Z,23.20
2023-12-12T10:29:03.437Z,22.30
2023-12-12T10:31:31.853Z,26.90
2023-12-12T10:34:00.294Z,30.30
2023-12-12T10:36:30.243Z,25.20
2023-12-12T10:39:14.056Z,23.20
2023-12-12T10:41:52.625Z,29.70
2023-12-12T10:44:23.068Z,27.00
2023-12-12T10:46:54.162Z,32.40
2023-12-12T10:49:25.770Z,28.00
2023-12-12T10:51:54.843Z,30.50
2023-12-12T10:54:24.374Z,26.90
2023-12-12T10:56:54.776Z,32.80
2023-12-12T10:59:57.313Z,29.40
2023-12-12T11:02:16.420Z,22.70
2023-12-12T11:04:46.912Z,30.70
2023-12-12T11:07:15.680Z,28.90
2023-12-12T11:09:44.736Z,26.40
2023-12-12T11:12:14.229Z,26.10
2023-12-12T11:14:43.013Z,32.20
2023-12-12T11:17:12.508Z,16.50
2023-12-12T11:19:42.118Z,25.80
2023-12-12T11:22:10.436Z,26.50
2023-12-12T11:25:02.578Z,28.80
2023-12-12T11:27:31.883Z,26.90
2023-12-12T11:30:01.082Z,36.10
2023-12-12T11:32:29.876Z,39.60
2023-12-12T11:34:58.541Z,22.40
2023-12-12T11:37:42.078Z,35.30
2023-12-12T11:40:12.748Z,32.30
2023-12-12T11:42:43.406Z,31.70
2023-12-12T11:45:11.744Z,42.30
2023-12-12T11:47:40.168Z,33.90
2023-12-12T11:50:19.545Z,34.00
2023-12-12T11:52:49.365Z,28.80
2023-12-12T11:55:30.622Z,28.40
2023-12-12T11:58:20.883Z,25.90
2023-12-12T12:00:49.542Z,30.00
2023-12-12T12:03:23.111Z,30.90
2023-12-12T12:05:51.524Z,25.20
2023-12-12T12:08:22.792Z,28.30
2023-12-12T12:10:57.660Z,31.70
2023-12-12T12:13:38.858Z,30.80
2023-12-12T12:16:08.422Z,28.70
2023-12-12T12:18:37.828Z,37.80
2023-12-12T12:21:09.240Z,31.30
2023-12-12T12:23:40.532Z,30.60
2023-12-12T12:26:09.198Z,28.70
2023-12-12T12:28:37.854Z,45.40
2023-12-12T12:31:07.310Z,29.00
2023-12-12T12:33:39.120Z,31.40
2023-12-12T12:36:08.001Z,37.40
2023-12-12T12:38:36.348Z,35.30
2023-12-12T12:41:23.417Z,48.70
2023-12-12T12:43:53.465Z,38.30
2023-12-12T12:46:21.871Z,25.00
2023-12-12T12:48:50.233Z,35.80
2023-12-12T12:51:18.575Z,25.80
2023-12-12T12:53:47.252Z,24.00
2023-12-12T12:56:15.713Z,31.20
2023-12-12T12:58:44.497Z,24.10
2023-12-12T13:01:12.921Z,28.00
2023-12-12T13:03:42.958Z,25.70
2023-12-12T13:06:11.329Z,30.10
2023-12-12T13:08:39.925Z,36.60
2023-12-12T13:11:08.304Z,28.70
2023-12-12T13:13:36.610Z,42.40
2023-12-12T13:16:07.023Z,39.60
2023-12-12T13:18:35.539Z,39.80
2023-12-12T13:21:04.043Z,40.30
2023-12-12T13:23:33.013Z,36.80
2023-12-12T13:26:01.353Z,38.30
2023-12-12T13:28:29.640Z,54.90
2023-12-12T13:30:59.596Z,70.70
2023-12-12T13:33:31.784Z,56.60
2023-12-12T13:36:00.681Z,48.00
2023-12-12T13:38:28.969Z,66.70
2023-12-12T13:40:57.324Z,56.40
2023-12-12T13:43:25.775Z,62.90
2023-12-12T13:45:54.132Z,67.60
2023-12-12T13:48:22.532Z,63.00
2023-12-12T13:50:50.907Z,65.40
2023-12-12T13:53:19.229Z,65.30
2023-12-12T13:55:47.865Z,46.00
2023-12-12T13:58:16.461Z,71.60
2023-12-12T14:00:45.800Z,69.80
2023-12-12T14:03:14.274Z,64.40
2023-12-12T14:05:42.763Z,87.00
2023-12-12T14:08:11.174Z,94.10
2023-12-12T14:10:39.570Z,74.50
2023-12-12T14:13:08.098Z,57.00
2023-12-12T14:15:37.352Z,62.40
2023-12-12T14:18:05.888Z,69.00
2023-12-12T14:20:34.204Z,41.70
2023-12-12T14:23:07.957Z,39.00
2023-12-12T14:25:40.135Z,35.00
2023-12-12T14:28:11.040Z,47.60
2023-12-12T14:30:40.798Z,57.10
2023-12-12T14:33:09.218Z,53.70
2023-12-12T14:35:38.142Z,50.10
2023-12-12T14:38:07.510Z,84.50
2023-12-12T14:40:37.469Z,52.30
2023-12-12T14:43:05.989Z,49.60
2023-12-12T14:45:34.874Z,57.50
2023-12-12T14:48:03.266Z,53.20
2023-12-12T14:50:31.719Z,59.70
2023-12-12T14:53:00.113Z,56.80
2023-12-12T14:55:28.421Z,48.00
2023-12-12T14:57:56.776Z,65.40
2023-12-12T15:00:27.454Z,57.90
2023-12-12T15:02:57.596Z,59.00
2023-12-12T15:05:26.265Z,62.90
2023-12-12T15:07:55.360Z,59.30
2023-12-12T15:10:24.050Z,64.10
2023-12-12T15:12:52.546Z,49.10
2023-12-12T15:15:21.154Z,59.50
2023-12-12T15:17:49.557Z,45.80
2023-12-12T15:20:37.114Z,42.80
2023-12-12T15:23:05.537Z,45.00
2023-12-12T15:25:39.552Z,38.80
2023-12-12T15:28:24.817Z,52.30
2023-12-12T15:30:57.653Z,67.70
2023-12-12T15:33:27.168Z,55.50
2023-12-12T15:35:57.701Z,47.00
2023-12-12T15:38:27.436Z,45.10
2023-12-12T15:40:56.485Z,58.40
2023-12-12T15:43:24.858Z,66.80
2023-12-12T15:45:53.576Z,74.50
2023-12-12T15:48:22.096Z,48.60
2023-12-12T15:50:50.678Z,48.10
2023-12-12T15:53:18.949Z,44.70
2023-12-12T15:55:47.427Z,54.30
2023-12-12T15:58:15.724Z,42.40
2023-12-12T16:00:44.244Z,39.60
2023-12-12T16:03:13.923Z,51.30
2023-12-12T16:05:43.826Z,41.40
2023-12-12T16:08:13.731Z,67.00
2023-12-12T16:10:42.314Z,57.50
2023-12-12T16:13:10.601Z,57.00
2023-12-12T16:15:39.040Z,79.00
2023-12-12T16:18:07.333Z,73.10
2023-12-12T16:20:35.761Z,57.20
2023-12-12T16:23:04.093Z,61.00
2023-12-12T16:25:32.940Z,48.10
2023-12-12T16:28:02.802Z,62.30
2023-12-12T16:30:32.365Z,65.30
2023-12-12T16:33:03.795Z,46.60
2023-12-12T16:35:32.264Z,59.70
2023-12-12T16:38:00.704Z,47.60
2023-12-12T16:40:29.121Z,50.40
2023-12-12T16:42:57.584Z,56.70
2023-12-12T16:45:25.881Z,68.90
2023-12-12T16:47:54.364Z,91.80
2023-12-12T16:50:22.737Z,65.90
2023-12-12T16:52:51.270Z,99.80
2023-12-12T16:55:19.642Z,112.00
2023-12-12T16:57:47.961Z,99.60
2023-12-12T17:00:17.320Z,78.60
2023-12-12T17:02:46.491Z,71.40
2023-12-12T17:05:15.733Z,85.40
2023-12-12T17:07:44.505Z,52.70
2023-12-12T17:10:13.393Z,48.90
2023-12-12T17:12:41.742Z,40.60
2023-12-12T17:15:10.822Z,46.10
2023-12-12T17:17:39.784Z,55.90
2023-12-12T17:20:10.099Z,62.90
2023-12-12T17:22:39.484Z,55.40
2023-12-12T17:25:08.640Z,55.30
2023-12-12T17:27:39.840Z,42.90
2023-12-12T17:30:11.780Z,48.40
2023-12-12T17:32:40.716Z,44.60
2023-12-12T17:35:09.707Z,48.50
2023-12-12T17:37:41.717Z,53.40
2023-12-12T17:40:12.128Z,59.10
2023-12-12T17:42:41.254Z,64.60
2023-12-12T17:45:10.031Z,63.70
2023-12-12T17:47:40.224Z,50.10
2023-12-12T17:50:10.778Z,60.60
2023-12-12T17:52:40.465Z,56.80
2023-12-12T17:55:09.673Z,46.80
2023-12-12T17:57:38.273Z,52.60
2023-12-12T18:00:09.356Z,84.40
2023-12-12T18:02:46.839Z,67.40
2023-12-12T18:05:17.039Z,62.20
2023-12-12T18:07:45.697Z,56.20
2023-12-12T18:10:14.203Z,77.60
2023-12-12T18:12:42.605Z,71.30
2023-12-12T18:15:11.711Z,63.30
2023-12-12T18:17:40.879Z,73.30
2023-12-12T18:20:10.446Z,64.70
2023-12-12T18:22:39.790Z,70.50
2023-12-12T18:25:08.770Z,58.90
2023-12-12T18:27:38.365Z,55.10
2023-12-12T18:30:10.772Z,70.30
2023-12-12T18:32:39.706Z,76.60
2023-12-12T18:35:08.943Z,62.40
2023-12-12T18:37:39.183Z,45.30
2023-12-12T18:40:08.579Z,49.30
2023-12-12T18:42:38.030Z,66.10
2023-12-12T18:45:09.866Z,66.00
2023-12-12T18:47:38.874Z,77.20
2023-12-12T18:50:08.500Z,61.00
2023-12-12T18:52:37.058Z,87.10
2023-12-12T18:55:06.059Z,82.10
2023-12-12T18:57:34.836Z,64.10
2023-12-12T19:00:11.485Z,67.30
2023-12-12T19:02:44.218Z,72.50
2023-12-12T19:05:17.405Z,64.80
2023-12-12T19:07:46.431Z,58.30
2023-12-12T19:10:15.731Z,51.50
2023-12-12T19:12:47.766Z,53.20
2023-12-12T19:15:22.392Z,70.10
2023-12-12T19:17:51.140Z,47.80
2023-12-12T19:20:19.829Z,68.50
2023-12-12T19:22:49.010Z,63.00
2023-12-12T19:25:17.794Z,80.00
2023-12-12T19:27:46.653Z,137.20
2023-12-12T19:30:14.949Z,119.60
2023-12-12T19:32:44.012Z,91.40
2023-12-12T19:35:13.762Z,86.30
2023-12-12T19:37:42.095Z,75.50
2023-12-12T19:40:10.788Z,66.20
2023-12-12T19:42:39.210Z,76.20
2023-12-12T19:49:11.405Z,107.40
2023-12-12T19:51:50.187Z,96.20
2023-12-12T19:54:18.942Z,84.70
2023-12-12T19:56:47.476Z,51.00
2023-12-12T19:59:15.880Z,72.20
2023-12-12T20:01:45.612Z,224.70
2023-12-12T20:04:14.076Z,133.80
2023-12-12T20:06:42.862Z,86.30
2023-12-12T20:09:11.483Z,131.90
2023-12-12T20:11:41.671Z,132.50
2023-12-12T20:14:11.314Z,182.40
2023-12-12T20:16:40.381Z,188.90
2023-12-12T20:19:09.020Z,127.50
2023-12-12T20:21:37.821Z,85.10
2023-12-12T20:24:06.622Z,80.60
2023-12-12T20:26:37.537Z,60.20
2023-12-12T20:29:05.985Z,57.70
2023-12-12T20:31:34.317Z,53.50
2023-12-12T20:34:02.789Z,60.90
2023-12-12T20:36:32.134Z,54.70
2023-12-12T20:39:00.396Z,68.90
2023-12-12T20:41:28.846Z,57.00
2023-12-12T20:43:57.413Z,68.20
2023-12-12T20:46:27.342Z,78.50
2023-12-12T20:48:56.484Z,69.20
2023-12-12T20:51:24.878Z,65.30
2023-12-12T20:53:53.180Z,64.20
2023-12-12T20:56:21.767Z,47.90
2023-12-12T20:58:50.582Z,70.60
2023-12-12T21:01:19.892Z,65.90
2023-12-12T21:03:49.165Z,57.90
2023-12-12T21:06:17.982Z,62.00
2023-12-12T21:08:46.413Z,72.80
2023-12-12T21:11:15.142Z,75.40
2023-12-12T21:13:43.535Z,61.20
2023-12-12T21:16:19.409Z,66.90
2023-12-12T21:18:48.057Z,63.90
2023-12-12T21:21:16.711Z,80.50
2023-12-12T21:23:45.399Z,67.40
2023-12-12T21:26:14.450Z,63.80
2023-12-12T21:28:42.833Z,59.70
2023-12-12T21:31:12.353Z,62.60
2023-12-12T21:33:40.696Z,57.30
2023-12-12T21:36:09.437Z,69.00
2023-12-12T21:38:37.877Z,51.40
2023-12-12T21:41:06.247Z,54.20
2023-12-12T21:43:34.575Z,55.50
2023-12-12T21:46:03.005Z,67.30
2023-12-12T21:48:31.383Z,56.90
2023-12-12T21:51:00.113Z,63.80
2023-12-12T21:53:30.462Z,70.70
2023-12-12T21:56:00.475Z,55.00
2023-12-12T21:58:28.978Z,51.70
2023-12-12T22:00:57.675Z,84.30
2023-12-12T22:03:26.114Z,68.30
2023-12-12T22:05:54.528Z,59.90
2023-12-12T22:08:22.976Z,63.90
2023-12-12T22:10:51.490Z,51.00
2023-12-12T22:13:19.988Z,89.20
2023-12-12T22:15:48.482Z,84.60
2023-12-12T22:18:17.955Z,59.20
2023-12-12T22:20:46.347Z,82.30
2023-12-12T22:23:14.800Z,76.40
2023-12-12T22:25:43.364Z,71.30
2023-12-12T22:28:11.743Z,66.10
2023-12-12T22:30:40.304Z,77.40
2023-12-12T22:33:08.746Z,73.70
2023-12-12T22:35:37.191Z,83.00
2023-12-12T22:38:05.522Z,102.60
2023-12-12T22:40:33.834Z,92.40
2023-12-12T22:43:03.666Z,63.90
2023-12-12T22:45:31.968Z,53.00
2023-12-12T22:48:00.291Z,47.50
2023-12-12T22:50:29.238Z,42.80
2023-12-12T22:52:57.669Z,59.50
2023-12-12T22:55:26.004Z,45.00
2023-12-12T22:57:54.336Z,58.50
2023-12-12T23:00:34.148Z,66.10
2023-12-12T23:03:02.953Z,84.60
2023-12-12T23:05:31.547Z,78.50
2023-12-12T23:08:00.147Z,78.50
2023-12-12T23:10:28.820Z,83.10
2023-12-12T23:12:57.715Z,63.00
2023-12-12T23:15:26.441Z,52.40
2023-12-12T23:17:54.775Z,53.20
2023-12-12T23:20:23.309Z,59.00
2023-12-12T23:22:51.796Z,52.80
2023-12-12T23:25:20.102Z,51.30
2023-12-12T23:27:48.486Z,48.20
2023-12-12T23:30:17.075Z,50.10
2023-12-12T23:32:45.610Z,55.10
2023-12-12T23:35:14.159Z,60.60
2023-12-12T23:37:42.714Z,59.70
2023-12-12T23:40:11.585Z,44.80
2023-12-12T23:42:39.924Z,76.40
2023-12-12T23:45:09.832Z,47.20
2023-12-12T23:47:38.363Z,41.40
2023-12-12T23:50:08.386Z,47.00
2023-12-12T23:52:36.820Z,59.60
2023-12-12T23:55:06.238Z,65.90
2023-12-12T23:57:35.547Z,53.00
